createdAt,value
2023-03-06T00:01:57.283Z,50.00
2023-03-06T00:04:24.098Z,50.10
2023-03-06T00:06:51.106Z,50.00
2023-03-06T00:09:17.888Z,50.10
2023-03-06T00:11:44.646Z,50.00
2023-03-06T00:14:11.825Z,50.10
2023-03-06T00:16:38.611Z,50.10
2023-03-06T00:19:05.426Z,50.00
2023-03-06T00:21:32.124Z,50.00
2023-03-06T00:23:58.797Z,50.10
2023-03-06T00:26:25.723Z,50.10
2023-03-06T00:28:52.624Z,50.10
2023-03-06T00:31:19.570Z,50.00
2023-03-06T00:33:46.620Z,50.20
2023-03-06T00:36:13.620Z,50.10
2023-03-06T00:38:40.365Z,50.10
2023-03-06T00:41:08.244Z,50.10
2023-03-06T00:43:34.991Z,50.10
2023-03-06T00:46:01.891Z,50.00
2023-03-06T00:48:28.829Z,50.00
2023-03-06T00:50:55.839Z,49.90
2023-03-06T00:53:22.794Z,50.10
2023-03-06T00:55:49.984Z,50.00
2023-03-06T00:58:16.885Z,50.00
2023-03-06T01:00:43.660Z,50.00
2023-03-06T01:03:10.568Z,50.00
2023-03-06T01:05:37.444Z,50.00
2023-03-06T01:08:04.656Z,50.00
2023-03-06T01:10:31.435Z,50.00
2023-03-06T01:12:58.170Z,49.90
2023-03-06T01:15:25.177Z,49.90
2023-03-06T01:17:52.506Z,49.80
2023-03-06T01:20:19.233Z,50.00
2023-03-06T01:22:46.149Z,49.80
2023-03-06T01:25:12.952Z,49.70
2023-03-06T01:27:39.765Z,49.80
2023-03-06T01:30:06.745Z,49.70
2023-03-06T01:32:33.433Z,49.70
2023-03-06T01:35:00.226Z,49.80
2023-03-06T01:37:27.015Z,49.70
2023-03-06T01:39:53.960Z,49.80
2023-03-06T01:42:20.754Z,49.80
2023-03-06T01:45:05.174Z,49.70
2023-03-06T01:47:31.888Z,49.80
2023-03-06T01:49:59.021Z,49.80
2023-03-06T01:52:26.484Z,49.80
2023-03-06T01:54:55.481Z,49.80
2023-03-06T01:57:22.816Z,49.70
2023-03-06T01:59:53.053Z,49.90
2023-03-06T02:02:20.159Z,49.80
2023-03-06T02:04:46.971Z,49.80
2023-03-06T02:07:14.042Z,49.80
2023-03-06T02:09:40.816Z,49.80
2023-03-06T02:12:14.933Z,49.70
2023-03-06T02:14:41.711Z,49.80
2023-03-06T02:17:09.012Z,49.70
2023-03-06T02:19:50.984Z,49.70
2023-03-06T02:22:23.900Z,49.70
2023-03-06T02:24:58.634Z,49.70
2023-03-06T02:27:25.472Z,49.70
2023-03-06T02:29:52.383Z,49.70
2023-03-06T02:32:19.111Z,49.50
2023-03-06T02:34:45.912Z,49.60
2023-03-06T02:37:12.666Z,49.60
2023-03-06T02:39:40.474Z,49.70
2023-03-06T02:42:07.256Z,49.70
2023-03-06T02:44:34.163Z,49.70
2023-03-06T02:47:00.847Z,49.70
2023-03-06T02:49:27.591Z,49.70
2023-03-06T02:51:54.290Z,49.60
2023-03-06T02:54:21.094Z,49.70
2023-03-06T02:56:48.025Z,49.70
2023-03-06T02:59:14.772Z,49.70
2023-03-06T03:01:41.576Z,49.60
2023-03-06T03:04:08.486Z,49.60
2023-03-06T03:06:35.243Z,49.60
2023-03-06T03:09:01.949Z,49.50
2023-03-06T03:11:28.789Z,49.70
2023-03-06T03:13:55.563Z,49.60
2023-03-06T03:16:28.029Z,49.50
2023-03-06T03:18:54.879Z,49.50
2023-03-06T03:21:21.826Z,49.50
2023-03-06T03:23:48.690Z,49.50
2023-03-06T03:26:16.440Z,49.50
2023-03-06T03:28:43.305Z,49.50
2023-03-06T03:31:10.208Z,49.40
2023-03-06T03:33:37.058Z,49.50
2023-03-06T03:36:04.132Z,49.40
2023-03-06T03:38:31.018Z,49.50
2023-03-06T03:40:57.792Z,49.40
2023-03-06T03:43:24.561Z,49.40
2023-03-06T03:45:52.665Z,49.50
2023-03-06T03:48:19.410Z,49.50
2023-03-06T03:50:46.257Z,49.40
2023-03-06T03:53:13.061Z,49.50
2023-03-06T03:55:39.827Z,49.40
2023-03-06T03:58:06.585Z,49.50
2023-03-06T04:00:33.395Z,49.40
2023-03-06T04:03:00.152Z,49.40
2023-03-06T04:05:27.070Z,49.50
2023-03-06T04:07:53.783Z,49.40
2023-03-06T04:10:20.620Z,49.40
2023-03-06T04:12:47.334Z,49.40
2023-03-06T04:15:14.294Z,49.40
2023-03-06T04:17:41.080Z,49.40
2023-03-06T04:20:08.312Z,49.40
2023-03-06T04:22:35.068Z,49.30
2023-03-06T04:25:01.852Z,49.40
2023-03-06T04:27:28.553Z,49.30
2023-03-06T04:29:56.524Z,49.30
2023-03-06T04:32:24.014Z,49.30
2023-03-06T04:34:51.029Z,49.30
2023-03-06T04:37:21.831Z,49.20
2023-03-06T04:39:48.714Z,49.20
2023-03-06T04:42:15.570Z,49.20
2023-03-06T04:44:42.503Z,49.10
2023-03-06T04:47:19.295Z,49.10
2023-03-06T04:49:46.348Z,49.10
2023-03-06T04:52:13.394Z,49.10
2023-03-06T04:54:40.193Z,49.20
2023-03-06T04:57:06.903Z,49.10
2023-03-06T04:59:33.782Z,49.20
2023-03-06T05:02:00.612Z,49.20
2023-03-06T05:04:27.482Z,49.10
2023-03-06T05:06:54.275Z,49.30
2023-03-06T05:09:21.077Z,49.20
2023-03-06T05:11:54.050Z,49.10
2023-03-06T05:14:20.910Z,49.20
2023-03-06T05:16:47.804Z,49.10
2023-03-06T05:19:14.736Z,49.10
2023-03-06T05:21:41.491Z,49.10
2023-03-06T05:24:08.278Z,49.20
2023-03-06T05:26:35.093Z,49.20
2023-03-06T05:29:01.993Z,49.10
2023-03-06T05:31:28.708Z,49.00
2023-03-06T05:33:56.964Z,49.20
2023-03-06T05:36:23.821Z,49.10
2023-03-06T05:38:50.619Z,49.00
2023-03-06T05:41:17.615Z,49.00
2023-03-06T05:44:08.878Z,49.20
2023-03-06T05:46:46.781Z,49.10
2023-03-06T05:49:23.740Z,49.10
2023-03-06T05:51:53.738Z,49.00
2023-03-06T05:54:26.061Z,49.00
2023-03-06T05:57:01.150Z,49.00
2023-03-06T05:59:30.981Z,49.10
2023-03-06T06:02:11.581Z,49.00
2023-03-06T06:08:06.463Z,49.10
2023-03-06T06:14:10.126Z,49.20
2023-03-06T06:17:18.484Z,49.10
2023-03-06T06:19:52.978Z,48.80
2023-03-06T06:22:27.182Z,49.30
2023-03-06T06:25:13.164Z,49.50
2023-03-06T06:27:40.064Z,49.40
2023-03-06T06:30:07.097Z,49.50
2023-03-06T06:32:34.098Z,49.70
2023-03-06T06:35:01.083Z,49.70
2023-03-06T06:37:28.123Z,49.60
2023-03-06T06:39:54.844Z,49.70
2023-03-06T06:42:38.926Z,49.70
2023-03-06T06:45:06.822Z,49.70
2023-03-06T06:47:34.379Z,49.70
2023-03-06T06:50:01.301Z,49.70
2023-03-06T06:52:28.297Z,49.70
2023-03-06T06:54:55.207Z,49.70
2023-03-06T06:57:22.408Z,49.80
2023-03-06T06:59:51.187Z,49.70
2023-03-06T07:02:19.145Z,49.70
2023-03-06T07:05:02.023Z,49.80
2023-03-06T07:07:29.852Z,49.90
2023-03-06T07:09:56.622Z,49.90
2023-03-06T07:12:23.330Z,49.90
2023-03-06T07:14:50.064Z,50.00
2023-03-06T07:17:20.652Z,50.00
2023-03-06T07:19:50.761Z,50.00
2023-03-06T07:22:17.498Z,50.10
2023-03-06T07:24:44.233Z,50.10
2023-03-06T07:27:10.932Z,50.20
2023-03-06T07:29:37.800Z,50.10
2023-03-06T07:32:04.654Z,50.20
2023-03-06T07:34:31.434Z,50.30
2023-03-06T07:36:58.211Z,50.30
2023-03-06T07:39:24.997Z,50.40
2023-03-06T07:41:52.468Z,50.20
2023-03-06T07:44:19.305Z,50.40
2023-03-06T07:46:46.221Z,50.40
2023-03-06T07:49:13.070Z,50.20
2023-03-06T07:51:39.765Z,50.20
2023-03-06T07:54:06.413Z,50.30
2023-03-06T07:56:35.130Z,50.20
2023-03-06T07:59:01.899Z,50.40
2023-03-06T08:01:28.711Z,50.40
2023-03-06T08:03:55.479Z,50.30
2023-03-06T08:06:23.053Z,50.30
2023-03-06T08:08:50.093Z,50.30
2023-03-06T08:11:17.520Z,50.30
2023-03-06T08:13:44.221Z,50.20
2023-03-06T08:16:11.087Z,50.20
2023-03-06T08:18:39.941Z,50.20
2023-03-06T08:21:07.846Z,50.20
2023-03-06T08:23:34.681Z,50.30
2023-03-06T08:26:02.504Z,50.10
2023-03-06T08:28:29.315Z,50.30
2023-03-06T08:30:56.282Z,50.20
2023-03-06T08:33:23.110Z,50.20
2023-03-06T08:35:49.838Z,50.20
2023-03-06T08:38:16.570Z,50.10
2023-03-06T08:40:43.397Z,50.20
2023-03-06T08:43:12.384Z,50.20
2023-03-06T08:45:40.472Z,50.30
2023-03-06T08:48:07.287Z,50.20
2023-03-06T08:50:34.053Z,50.30
2023-03-06T08:53:01.178Z,50.20
2023-03-06T08:55:28.290Z,50.20
2023-03-06T08:57:55.082Z,50.40
2023-03-06T09:00:22.077Z,50.30
2023-03-06T09:02:48.906Z,50.30
2023-03-06T09:05:15.610Z,50.30
2023-03-06T09:07:42.245Z,50.20
2023-03-06T09:10:12.689Z,50.20
2023-03-06T09:12:49.881Z,50.30
2023-03-06T09:15:18.012Z,50.30
2023-03-06T09:17:44.771Z,50.20
2023-03-06T09:20:11.705Z,50.20
2023-03-06T09:22:38.281Z,50.20
2023-03-06T09:25:05.315Z,50.20
2023-03-06T09:27:31.915Z,50.30
2023-03-06T09:29:58.471Z,50.20
2023-03-06T09:32:25.374Z,50.30
2023-03-06T09:34:52.009Z,50.20
2023-03-06T09:37:18.661Z,50.20
2023-03-06T09:39:45.255Z,50.20
2023-03-06T09:42:18.991Z,50.20
2023-03-06T09:44:52.356Z,50.20
2023-03-06T09:47:34.318Z,50.20
2023-03-06T09:50:19.734Z,50.20
2023-03-06T09:52:47.414Z,50.20
2023-03-06T09:55:29.166Z,50.10
2023-03-06T09:57:58.761Z,50.20
2023-03-06T10:00:48.617Z,50.10
2023-03-06T10:03:18.350Z,50.20
2023-03-06T10:05:47.285Z,50.10
2023-03-06T10:08:32.732Z,50.10
2023-03-06T10:11:03.798Z,50.10
2023-03-06T10:13:42.775Z,50.10
2023-03-06T10:16:17.650Z,50.10
2023-03-06T10:18:44.336Z,50.10
2023-03-06T10:21:19.354Z,50.10
2023-03-06T10:23:53.450Z,50.20
2023-03-06T10:26:20.707Z,50.20
2023-03-06T10:28:52.511Z,50.10
2023-03-06T10:31:20.855Z,50.10
2023-03-06T10:33:47.487Z,50.10
2023-03-06T10:36:18.160Z,50.10
2023-03-06T10:38:45.085Z,50.20
2023-03-06T10:41:11.668Z,50.20
2023-03-06T10:43:42.054Z,50.20
2023-03-06T10:46:09.935Z,50.30
2023-03-06T10:48:36.785Z,50.10
2023-03-06T10:51:18.027Z,50.20
2023-03-06T10:53:58.412Z,50.20
2023-03-06T10:56:35.300Z,50.20
2023-03-06T10:59:18.004Z,50.20
2023-03-06T11:01:45.370Z,50.10
2023-03-06T11:04:16.077Z,50.10
2023-03-06T11:06:42.774Z,50.10
2023-03-06T11:09:22.843Z,50.20
2023-03-06T11:11:50.003Z,50.20
2023-03-06T11:14:17.545Z,50.10
2023-03-06T11:16:53.236Z,50.10
2023-03-06T11:19:22.045Z,50.00
2023-03-06T11:22:03.944Z,50.10
2023-03-06T11:24:35.912Z,50.10
2023-03-06T11:27:07.678Z,50.20
2023-03-06T11:29:38.544Z,50.10
2023-03-06T11:32:05.699Z,50.20
2023-03-06T11:34:38.620Z,50.20
2023-03-06T11:37:10.495Z,50.20
2023-03-06T11:39:47.966Z,50.20
2023-03-06T11:42:18.959Z,50.20
2023-03-06T11:44:49.447Z,50.10
2023-03-06T11:47:20.861Z,50.10
2023-03-06T11:49:49.775Z,50.20
2023-03-06T11:52:24.098Z,50.20
2023-03-06T11:54:52.162Z,50.20
2023-03-06T11:57:20.306Z,50.20
2023-03-06T12:00:06.061Z,50.10
2023-03-06T12:02:51.381Z,50.20
2023-03-06T12:05:26.988Z,50.20
2023-03-06T12:08:05.768Z,50.10
2023-03-06T12:10:32.450Z,50.20
2023-03-06T12:13:02.039Z,50.10
2023-03-06T12:15:31.857Z,50.10
2023-03-06T12:18:17.064Z,50.20
2023-03-06T12:21:02.606Z,50.10
2023-03-06T12:23:32.334Z,50.10
2023-03-06T12:25:59.032Z,50.10
2023-03-06T12:28:41.017Z,50.10
2023-03-06T12:31:13.917Z,50.10
2023-03-06T12:33:48.231Z,50.10
2023-03-06T12:36:15.152Z,50.00
2023-03-06T12:38:50.405Z,50.10
2023-03-06T12:41:23.541Z,50.10
2023-03-06T12:44:05.886Z,50.10
2023-03-06T12:46:33.528Z,50.30
2023-03-06T12:49:04.478Z,50.20
2023-03-06T12:51:31.699Z,50.20
2023-03-06T12:53:59.083Z,50.10
2023-03-06T12:56:41.751Z,50.10
2023-03-06T12:59:53.517Z,50.20
2023-03-06T13:02:20.372Z,50.20
2023-03-06T13:05:05.877Z,50.20
2023-03-06T13:07:52.820Z,50.20
2023-03-06T13:10:25.988Z,50.20
2023-03-06T13:13:01.039Z,50.10
2023-03-06T13:15:30.846Z,50.20
2023-03-06T13:17:57.589Z,50.00
2023-03-06T13:20:27.108Z,50.10
2023-03-06T13:22:53.927Z,50.00
2023-03-06T13:25:20.699Z,50.00
2023-03-06T13:27:59.421Z,50.00
2023-03-06T13:30:35.360Z,50.00
2023-03-06T13:33:02.310Z,49.50
2023-03-06T13:35:35.924Z,49.90
2023-03-06T13:38:02.658Z,50.00
2023-03-06T13:40:30.430Z,49.90
2023-03-06T13:43:09.295Z,50.00
2023-03-06T13:45:39.646Z,49.90
2023-03-06T13:48:30.328Z,49.40
2023-03-06T13:51:23.252Z,49.80
2023-03-06T13:53:53.650Z,49.80
2023-03-06T13:56:23.425Z,49.80
2023-03-06T13:58:50.536Z,49.80
2023-03-06T14:01:21.297Z,49.80
2023-03-06T14:03:48.052Z,49.90
2023-03-06T14:06:33.589Z,49.80
2023-03-06T14:09:00.859Z,50.60
2023-03-06T14:11:27.594Z,50.00
2023-03-06T14:13:55.239Z,49.90
2023-03-06T14:16:22.850Z,49.90
2023-03-06T14:18:50.050Z,49.80
2023-03-06T14:21:21.753Z,50.00
2023-03-06T14:23:48.417Z,49.80
2023-03-06T14:26:27.470Z,49.80
2023-03-06T14:29:00.313Z,50.00
2023-03-06T14:31:34.201Z,50.60
2023-03-06T14:34:07.450Z,50.10
2023-03-06T14:36:44.046Z,49.90
2023-03-06T14:39:14.881Z,49.90
2023-03-06T14:41:41.545Z,49.90
2023-03-06T14:44:09.301Z,50.00
2023-03-06T14:46:36.089Z,49.90
2023-03-06T14:49:06.377Z,49.80
2023-03-06T14:51:33.345Z,49.90
2023-03-06T14:54:00.899Z,49.80
2023-03-06T14:56:28.190Z,50.00
2023-03-06T14:59:01.629Z,49.80
2023-03-06T15:01:31.513Z,49.90
2023-03-06T15:04:06.781Z,49.80
2023-03-06T15:06:34.848Z,49.90
2023-03-06T15:09:08.133Z,49.90
2023-03-06T15:12:10.680Z,49.80
2023-03-06T15:14:38.299Z,50.10
2023-03-06T15:17:17.358Z,50.00
2023-03-06T15:19:47.640Z,50.00
2023-03-06T15:22:34.669Z,50.00
2023-03-06T15:25:16.592Z,49.90
2023-03-06T15:27:47.756Z,49.20
2023-03-06T15:30:23.650Z,49.90
2023-03-06T15:32:50.368Z,50.00
2023-03-06T15:35:30.235Z,50.00
2023-03-06T15:37:57.052Z,49.90
2023-03-06T15:40:24.398Z,49.70
2023-03-06T15:42:51.097Z,49.90
2023-03-06T15:45:19.517Z,50.00
2023-03-06T15:47:46.581Z,50.00
2023-03-06T15:50:17.577Z,49.40
2023-03-06T15:52:44.604Z,49.80
2023-03-06T15:55:12.069Z,49.90
2023-03-06T15:57:38.740Z,48.90
2023-03-06T16:00:21.616Z,49.30
2023-03-06T16:02:53.300Z,49.90
2023-03-06T16:05:20.071Z,49.90
2023-03-06T16:07:46.960Z,49.90
2023-03-06T16:10:14.150Z,49.90
2023-03-06T16:12:47.390Z,50.00
2023-03-06T16:15:18.092Z,49.90
2023-03-06T16:17:45.341Z,50.00
2023-03-06T16:20:17.581Z,49.90
2023-03-06T16:22:45.008Z,49.90
2023-03-06T16:25:11.917Z,49.80
2023-03-06T16:27:38.622Z,49.90
2023-03-06T16:30:05.766Z,49.90
2023-03-06T16:32:32.702Z,49.90
2023-03-06T16:34:59.418Z,49.80
2023-03-06T16:37:26.175Z,49.90
2023-03-06T16:39:53.045Z,49.90
2023-03-06T16:42:19.974Z,49.70
2023-03-06T16:44:46.877Z,49.80
2023-03-06T16:47:13.835Z,49.70
2023-03-06T16:49:41.873Z,49.80
2023-03-06T16:52:09.614Z,49.90
2023-03-06T16:54:36.479Z,49.80
2023-03-06T16:57:03.523Z,49.90
2023-03-06T16:59:31.746Z,49.90
2023-03-06T17:01:58.549Z,49.80
2023-03-06T17:04:25.330Z,49.90
2023-03-06T17:06:52.935Z,49.90
2023-03-06T17:09:19.623Z,50.00
2023-03-06T17:11:46.848Z,49.90
2023-03-06T17:14:13.644Z,50.00
2023-03-06T17:16:40.758Z,49.80
2023-03-06T17:19:07.715Z,49.90
2023-03-06T17:21:35.529Z,49.70
2023-03-06T17:24:03.818Z,48.90
2023-03-06T17:26:30.661Z,49.80
2023-03-06T17:28:57.400Z,49.90
2023-03-06T17:31:26.290Z,49.90
2023-03-06T17:33:59.261Z,49.90
2023-03-06T17:36:29.577Z,49.80
2023-03-06T17:38:56.952Z,49.80
2023-03-06T17:41:29.408Z,49.80
2023-03-06T17:43:56.182Z,49.70
2023-03-06T17:46:22.940Z,49.60
2023-03-06T17:48:49.697Z,49.50
2023-03-06T17:51:16.443Z,49.60
2023-03-06T17:53:43.129Z,49.50
2023-03-06T17:56:11.648Z,49.40
2023-03-06T17:58:38.496Z,49.50
2023-03-06T18:01:12.134Z,49.40
2023-03-06T18:03:39.103Z,49.30
2023-03-06T18:06:09.466Z,49.30
2023-03-06T18:08:36.928Z,49.20
2023-03-06T18:11:04.278Z,49.30
2023-03-06T18:13:33.679Z,49.20
2023-03-06T18:16:00.741Z,49.30
2023-03-06T18:18:27.526Z,49.20
2023-03-06T18:20:54.255Z,48.70
2023-03-06T18:23:20.962Z,49.40
2023-03-06T18:25:47.689Z,49.80
2023-03-06T18:28:14.384Z,49.40
2023-03-06T18:30:41.470Z,49.90
2023-03-06T18:33:08.321Z,50.30
2023-03-06T18:35:35.428Z,50.50
2023-03-06T18:38:02.245Z,50.80
2023-03-06T18:40:29.035Z,50.90
2023-03-06T18:42:55.758Z,51.30
2023-03-06T18:45:22.454Z,51.30
2023-03-06T18:47:49.314Z,51.60
2023-03-06T18:50:17.674Z,51.70
2023-03-06T18:52:44.570Z,51.90
2023-03-06T18:55:11.428Z,52.20
2023-03-06T18:57:38.388Z,52.40
2023-03-06T19:00:05.893Z,52.20
2023-03-06T19:02:32.576Z,51.90
2023-03-06T19:04:59.556Z,51.90
2023-03-06T19:07:26.323Z,51.50
2023-03-06T19:09:53.059Z,51.50
2023-03-06T19:12:19.777Z,51.30
2023-03-06T19:14:46.527Z,51.20
2023-03-06T19:17:13.248Z,51.10
2023-03-06T19:19:39.997Z,50.90
2023-03-06T19:22:06.717Z,50.90
2023-03-06T19:24:34.057Z,50.90
2023-03-06T19:27:00.742Z,50.90
2023-03-06T19:29:28.623Z,50.80
2023-03-06T19:31:57.265Z,50.70
2023-03-06T19:34:24.149Z,50.70
2023-03-06T19:36:51.105Z,50.60
2023-03-06T19:39:17.788Z,50.50
2023-03-06T19:41:45.762Z,50.40
2023-03-06T19:44:12.927Z,50.40
2023-03-06T19:46:40.749Z,50.40
2023-03-06T19:49:12.103Z,50.20
2023-03-06T19:51:39.051Z,50.30
2023-03-06T19:54:05.916Z,50.20
2023-03-06T19:56:33.739Z,50.20
2023-03-06T19:59:00.540Z,50.30
2023-03-06T20:01:27.766Z,50.40
2023-03-06T20:03:58.709Z,50.90
2023-03-06T20:06:26.517Z,50.20
2023-03-06T20:08:53.462Z,50.30
2023-03-06T20:11:21.377Z,50.20
2023-03-06T20:13:48.124Z,50.20
2023-03-06T20:16:15.267Z,50.20
2023-03-06T20:18:42.026Z,50.20
2023-03-06T20:21:08.699Z,50.20
2023-03-06T20:23:35.479Z,50.10
2023-03-06T20:26:06.149Z,50.60
2023-03-06T20:28:33.091Z,50.00
2023-03-06T20:30:59.893Z,50.10
2023-03-06T20:33:27.085Z,50.00
2023-03-06T20:35:54.221Z,50.00
2023-03-06T20:38:21.054Z,50.00
2023-03-06T20:40:47.780Z,50.00
2023-03-06T20:43:14.447Z,50.00
2023-03-06T20:45:41.138Z,50.10
2023-03-06T20:48:07.827Z,49.90
2023-03-06T20:50:34.513Z,50.00
2023-03-06T20:53:01.220Z,49.80
2023-03-06T20:55:27.879Z,49.80
2023-03-06T20:57:54.563Z,49.70
2023-03-06T21:00:21.334Z,49.70
2023-03-06T21:02:48.066Z,49.70
2023-03-06T21:05:14.828Z,49.70
2023-03-06T21:07:41.616Z,49.70
2023-03-06T21:10:08.931Z,49.70
2023-03-06T21:12:35.629Z,49.70
2023-03-06T21:15:02.335Z,49.60
2023-03-06T21:17:30.433Z,49.70
2023-03-06T21:19:58.407Z,49.70
2023-03-06T21:22:25.529Z,49.70
2023-03-06T21:24:52.216Z,49.70
2023-03-06T21:27:18.945Z,49.70
2023-03-06T21:29:45.865Z,49.70
2023-03-06T21:32:12.540Z,49.70
2023-03-06T21:34:39.206Z,49.70
2023-03-06T21:37:05.895Z,49.70
2023-03-06T21:39:32.592Z,49.70
2023-03-06T21:41:59.331Z,49.60
2023-03-06T21:44:26.115Z,49.60
2023-03-06T21:46:52.800Z,49.50
2023-03-06T21:49:19.590Z,49.40
2023-03-06T21:51:46.264Z,49.40
2023-03-06T21:54:13.168Z,49.40
2023-03-06T21:56:39.867Z,49.40
2023-03-06T21:59:06.617Z,49.40
2023-03-06T22:01:33.319Z,49.30
2023-03-06T22:04:00.368Z,49.40
2023-03-06T22:06:27.663Z,49.30
2023-03-06T22:08:54.794Z,49.30
2023-03-06T22:11:21.713Z,49.40
2023-03-06T22:13:48.570Z,49.40
2023-03-06T22:16:15.429Z,49.40
2023-03-06T22:18:45.678Z,49.40
2023-03-06T22:21:13.060Z,49.50
2023-03-06T22:23:40.640Z,49.40
2023-03-06T22:26:08.373Z,49.40
2023-03-06T22:28:35.162Z,49.30
2023-03-06T22:31:12.035Z,49.30
2023-03-06T22:33:38.718Z,49.50
2023-03-06T22:36:07.597Z,49.40
2023-03-06T22:38:34.896Z,49.30
2023-03-06T22:41:01.786Z,49.40
2023-03-06T22:43:28.533Z,49.30
2023-03-06T22:45:55.337Z,49.40
2023-03-06T22:48:23.082Z,49.30
2023-03-06T22:50:49.849Z,49.30
2023-03-06T22:53:16.551Z,49.40
2023-03-06T22:55:43.173Z,49.40
2023-03-06T22:58:09.834Z,49.40
2023-03-06T23:00:36.503Z,49.30
2023-03-06T23:03:03.386Z,49.20
2023-03-06T23:05:30.079Z,49.50
2023-03-06T23:07:56.721Z,49.30
2023-03-06T23:10:23.401Z,49.40
2023-03-06T23:12:50.080Z,49.40
2023-03-06T23:15:16.875Z,49.40
2023-03-06T23:17:43.699Z,49.40
2023-03-06T23:20:10.780Z,49.30
2023-03-06T23:22:37.439Z,49.50
2023-03-06T23:25:04.361Z,49.30
2023-03-06T23:27:31.037Z,49.30
2023-03-06T23:29:59.088Z,49.30
2023-03-06T23:32:25.919Z,49.30
2023-03-06T23:34:52.633Z,49.30
2023-03-06T23:37:19.354Z,49.30
2023-03-06T23:39:46.047Z,49.30
2023-03-06T23:42:12.725Z,49.30
2023-03-06T23:44:39.423Z,49.20
2023-03-06T23:47:06.104Z,49.30
2023-03-06T23:49:32.825Z,49.20
2023-03-06T23:51:59.613Z,49.30
2023-03-06T23:54:26.301Z,49.20
2023-03-06T23:56:53.007Z,49.30
2023-03-06T23:59:19.720Z,49.20
